createdAt,value
2022-09-24T00:02:44.864Z,29.55
2022-09-24T00:05:47.907Z,27.55
2022-09-24T00:08:52.007Z,30.48
2022-09-24T00:11:55.088Z,25.65
2022-09-24T00:14:57.985Z,25.73
2022-09-24T00:18:02.007Z,28.20
2022-09-24T00:21:19.764Z,24.02
2022-09-24T00:24:41.352Z,24.30
2022-09-24T00:27:45.684Z,24.73
2022-09-24T00:30:48.752Z,25.07
2022-09-24T00:33:52.274Z,26.02
2022-09-24T00:36:55.138Z,25.88
2022-09-24T00:39:58.003Z,22.80
2022-09-24T00:43:00.959Z,23.08
2022-09-24T00:46:25.833Z,25.13
2022-09-24T00:49:28.762Z,24.17
2022-09-24T00:52:32.313Z,22.17
2022-09-24T00:55:35.434Z,24.17
2022-09-24T00:58:38.408Z,22.85
2022-09-24T01:01:41.333Z,23.03
2022-09-24T01:04:44.259Z,25.42
2022-09-24T01:07:48.746Z,24.55
2022-09-24T01:11:25.328Z,23.27
2022-09-24T01:14:40.545Z,23.05
2022-09-24T01:18:05.093Z,23.60
2022-09-24T01:21:22.019Z,23.70
2022-09-24T01:24:37.676Z,22.02
2022-09-24T01:28:02.083Z,23.10
2022-09-24T01:31:17.188Z,26.20
2022-09-24T01:34:22.003Z,23.97
2022-09-24T01:37:25.835Z,27.80
2022-09-24T01:40:29.292Z,24.40
2022-09-24T01:43:33.085Z,24.13
2022-09-24T01:46:39.460Z,28.42
2022-09-24T01:49:42.640Z,26.37
2022-09-24T01:52:56.704Z,28.00
2022-09-24T01:56:06.574Z,37.65
2022-09-24T01:59:28.922Z,26.48
2022-09-24T02:02:37.320Z,30.58
2022-09-24T02:05:45.407Z,31.13
2022-09-24T02:08:48.677Z,26.30
2022-09-24T02:11:53.066Z,23.40
2022-09-24T02:15:17.525Z,22.30
2022-09-24T02:18:21.737Z,22.35
2022-09-24T02:21:24.843Z,25.20
2022-09-24T02:24:40.522Z,23.23
2022-09-24T02:27:43.409Z,22.33
2022-09-24T02:31:12.441Z,21.88
2022-09-24T02:34:27.731Z,21.00
2022-09-24T02:37:31.614Z,20.47
2022-09-24T02:40:34.657Z,20.85
2022-09-24T02:43:37.554Z,19.17
2022-09-24T02:46:42.044Z,19.42
2022-09-24T02:49:44.980Z,17.90
2022-09-24T02:52:47.858Z,22.93
2022-09-24T02:55:51.224Z,24.15
2022-09-24T02:58:54.197Z,22.88
2022-09-24T03:01:57.174Z,21.20
2022-09-24T03:05:00.221Z,24.17
2022-09-24T03:08:03.108Z,22.50
2022-09-24T03:11:06.065Z,26.90
2022-09-24T03:14:09.036Z,23.30
2022-09-24T03:17:12.211Z,21.25
2022-09-24T03:20:15.277Z,24.00
2022-09-24T03:23:18.183Z,20.77
2022-09-24T03:26:21.124Z,18.70
2022-09-24T03:29:44.003Z,19.75
2022-09-24T03:32:48.465Z,21.73
2022-09-24T03:35:54.871Z,20.77
2022-09-24T03:38:58.041Z,19.30
2022-09-24T03:42:00.954Z,22.00
2022-09-24T03:45:04.186Z,19.48
2022-09-24T03:48:07.125Z,22.52
2022-09-24T03:51:13.993Z,20.50
2022-09-24T03:54:17.094Z,24.43
2022-09-24T03:57:19.962Z,23.27
2022-09-24T04:00:23.690Z,20.48
2022-09-24T04:03:26.676Z,21.13
2022-09-24T04:06:29.583Z,26.02
2022-09-24T04:09:32.514Z,23.47
2022-09-24T04:12:35.459Z,22.88
2022-09-24T04:15:38.417Z,21.65
2022-09-24T04:18:41.309Z,21.13
2022-09-24T04:21:44.479Z,21.35
2022-09-24T04:24:47.697Z,22.23
2022-09-24T04:27:54.864Z,20.20
2022-09-24T04:30:57.946Z,19.38
2022-09-24T04:34:00.969Z,20.65
2022-09-24T04:37:03.975Z,20.77
2022-09-24T04:40:09.558Z,19.53
2022-09-24T04:43:12.599Z,20.17
2022-09-24T04:46:15.578Z,21.88
2022-09-24T04:49:18.578Z,20.17
2022-09-24T04:52:29.729Z,18.65
2022-09-24T04:55:32.627Z,21.40
2022-09-24T04:58:36.173Z,19.90
2022-09-24T05:01:39.181Z,19.20
2022-09-24T05:04:43.657Z,32.58
2022-09-24T05:07:46.565Z,32.58
2022-09-24T05:10:49.797Z,30.50
2022-09-24T05:13:52.699Z,28.23
2022-09-24T05:16:55.801Z,23.60
2022-09-24T05:19:59.656Z,22.70
2022-09-24T05:23:02.601Z,21.17
2022-09-24T05:26:24.347Z,22.27
2022-09-24T05:29:27.255Z,23.17
2022-09-24T05:32:30.142Z,26.00
2022-09-24T05:35:33.049Z,22.73
2022-09-24T05:38:38.793Z,23.02
2022-09-24T05:41:43.866Z,22.93
2022-09-24T05:44:51.455Z,26.55
2022-09-24T05:47:55.229Z,30.85
2022-09-24T05:51:00.385Z,31.30
2022-09-24T05:54:03.401Z,30.90
2022-09-24T05:57:06.288Z,27.10
2022-09-24T06:00:09.568Z,28.58
2022-09-24T06:03:16.677Z,30.92
2022-09-24T06:06:19.699Z,34.60
2022-09-24T06:09:22.571Z,36.88
2022-09-24T06:12:25.722Z,33.33
2022-09-24T06:15:28.665Z,36.67
2022-09-24T06:18:33.410Z,41.05
2022-09-24T06:21:36.397Z,31.67
2022-09-24T06:24:40.052Z,31.65
2022-09-24T06:27:42.962Z,23.63
2022-09-24T06:30:45.903Z,26.73
2022-09-24T06:33:48.794Z,25.45
2022-09-24T06:36:55.141Z,24.20
2022-09-24T06:39:58.049Z,22.83
2022-09-24T06:43:01.005Z,22.10
2022-09-24T06:46:04.923Z,21.95
2022-09-24T06:49:08.043Z,20.48
2022-09-24T06:52:11.491Z,19.27
2022-09-24T06:55:14.744Z,22.13
2022-09-24T06:58:20.093Z,20.13
2022-09-24T07:01:23.181Z,20.23
2022-09-24T07:04:26.182Z,20.02
2022-09-24T07:07:33.024Z,19.42
2022-09-24T07:10:35.940Z,24.13
2022-09-24T07:13:38.842Z,20.60
2022-09-24T07:16:41.745Z,22.98
2022-09-24T07:19:44.648Z,25.00
2022-09-24T07:22:47.561Z,22.08
2022-09-24T07:25:51.755Z,19.95
2022-09-24T07:28:54.842Z,22.87
2022-09-24T07:31:57.762Z,24.40
2022-09-24T07:35:00.659Z,24.23
2022-09-24T07:38:07.936Z,24.35
2022-09-24T07:41:10.830Z,22.27
2022-09-24T07:44:13.739Z,20.73
2022-09-24T07:47:16.681Z,20.55
2022-09-24T07:50:19.596Z,22.70
2022-09-24T07:53:23.577Z,21.15
2022-09-24T07:56:26.565Z,22.90
2022-09-24T07:59:30.606Z,19.73
2022-09-24T08:02:33.491Z,20.40
2022-09-24T08:05:36.469Z,22.08
2022-09-24T08:08:39.828Z,20.77
2022-09-24T08:11:42.813Z,20.38
2022-09-24T08:14:45.790Z,19.37
2022-09-24T08:17:48.696Z,16.38
2022-09-24T08:20:51.584Z,16.90
2022-09-24T08:23:54.923Z,18.20
2022-09-24T08:26:58.948Z,18.50
2022-09-24T08:30:02.666Z,17.97
2022-09-24T08:33:07.441Z,18.80
2022-09-24T08:36:10.444Z,15.52
2022-09-24T08:39:15.244Z,18.33
2022-09-24T08:42:27.709Z,18.00
2022-09-24T08:45:51.374Z,16.73
2022-09-24T08:48:54.346Z,15.73
2022-09-24T08:52:15.766Z,16.63
2022-09-24T08:55:23.178Z,17.08
2022-09-24T08:58:27.413Z,17.70
2022-09-24T09:01:51.733Z,15.40
2022-09-24T09:05:33.966Z,14.07
2022-09-24T09:09:11.783Z,13.95
2022-09-24T09:12:18.003Z,16.50
2022-09-24T09:15:26.147Z,12.82
2022-09-24T09:18:37.427Z,16.43
2022-09-24T09:21:45.913Z,15.52
2022-09-24T09:24:50.251Z,11.65
2022-09-24T09:27:58.520Z,13.63
2022-09-24T09:31:08.304Z,15.00
2022-09-24T09:34:44.381Z,10.53
2022-09-24T09:38:09.814Z,10.57
2022-09-24T09:41:24.643Z,9.75
2022-09-24T09:44:29.201Z,8.48
2022-09-24T09:47:41.818Z,12.68
2022-09-24T09:50:49.878Z,19.77
2022-09-24T09:54:00.305Z,9.18
2022-09-24T09:57:03.321Z,9.95
2022-09-24T10:00:06.860Z,18.65
2022-09-24T10:03:31.554Z,8.52
2022-09-24T10:06:35.629Z,7.57
2022-09-24T10:09:39.231Z,10.68
2022-09-24T10:12:42.154Z,10.35
2022-09-24T10:15:52.041Z,7.07
2022-09-24T10:18:54.979Z,7.45
2022-09-24T10:21:57.883Z,7.03
2022-09-24T10:25:01.366Z,6.82
2022-09-24T10:28:26.539Z,8.43
2022-09-24T10:31:30.923Z,12.13
2022-09-24T10:34:33.889Z,6.15
2022-09-24T10:37:36.819Z,10.07
2022-09-24T10:40:40.396Z,6.32
2022-09-24T10:43:51.506Z,30.67
2022-09-24T10:47:12.580Z,7.88
2022-09-24T10:50:28.307Z,6.05
2022-09-24T10:53:41.557Z,7.37
2022-09-24T10:56:51.587Z,6.63
2022-09-24T11:00:04.097Z,6.22
2022-09-24T11:03:28.557Z,8.02
2022-09-24T11:06:53.334Z,6.38
2022-09-24T11:10:21.022Z,5.80
2022-09-24T11:13:34.453Z,5.93
2022-09-24T11:17:16.233Z,5.25
2022-09-24T11:20:27.478Z,6.40
2022-09-24T11:23:52.211Z,6.50
2022-09-24T11:27:08.346Z,6.70
2022-09-24T11:30:18.579Z,5.65
2022-09-24T11:33:47.962Z,7.13
2022-09-24T11:37:03.572Z,8.68
2022-09-24T11:40:18.468Z,5.45
2022-09-24T11:43:48.275Z,5.40
2022-09-24T11:47:06.979Z,8.07
2022-09-24T11:50:19.176Z,6.45
2022-09-24T11:53:37.104Z,5.88
2022-09-24T11:56:47.225Z,6.05
2022-09-24T12:00:00.033Z,5.40
2022-09-24T12:03:19.909Z,6.30
2022-09-24T12:06:57.767Z,5.57
2022-09-24T12:10:07.390Z,5.32
2022-09-24T12:13:34.699Z,5.55
2022-09-24T12:16:38.163Z,5.27
2022-09-24T12:19:48.363Z,8.23
2022-09-24T12:22:55.912Z,5.82
2022-09-24T12:25:59.782Z,6.70
2022-09-24T12:29:56.430Z,5.53
2022-09-24T12:33:01.408Z,6.07
2022-09-24T12:36:22.398Z,5.88
2022-09-24T12:39:28.730Z,5.90
2022-09-24T12:42:36.065Z,6.30
2022-09-24T12:45:39.271Z,5.68
2022-09-24T12:48:43.536Z,8.17
2022-09-24T12:51:46.507Z,6.93
2022-09-24T12:54:59.693Z,9.02
2022-09-24T12:58:06.579Z,5.22
2022-09-24T13:01:25.250Z,6.03
2022-09-24T13:04:28.934Z,5.63
2022-09-24T13:07:41.655Z,5.32
2022-09-24T13:11:05.561Z,4.95
2022-09-24T13:14:21.784Z,6.95
2022-09-24T13:17:25.142Z,6.60
2022-09-24T13:20:28.055Z,6.00
2022-09-24T13:23:52.289Z,6.05
2022-09-24T13:26:55.267Z,6.90
2022-09-24T13:30:15.440Z,6.45
2022-09-24T13:33:28.142Z,6.82
2022-09-24T13:36:38.595Z,6.43
2022-09-24T13:40:01.492Z,7.60
2022-09-24T13:43:11.828Z,9.93
2022-09-24T13:46:16.895Z,6.32
2022-09-24T13:49:20.196Z,6.13
2022-09-24T13:52:24.456Z,6.33
2022-09-24T13:56:04.455Z,9.05
2022-09-24T13:59:11.610Z,9.90
2022-09-24T14:02:28.074Z,6.18
2022-09-24T14:05:37.262Z,7.03
2022-09-24T14:08:44.645Z,7.73
2022-09-24T14:11:52.114Z,5.30
2022-09-24T14:14:58.211Z,7.28
2022-09-24T14:18:01.270Z,5.40
2022-09-24T14:21:13.098Z,5.55
2022-09-24T14:24:24.353Z,6.03
2022-09-24T14:27:27.380Z,6.40
2022-09-24T14:30:30.641Z,6.10
2022-09-24T14:33:33.818Z,5.88
2022-09-24T14:36:36.749Z,6.60
2022-09-24T14:39:42.121Z,7.07
2022-09-24T14:42:49.984Z,6.38
2022-09-24T14:45:52.872Z,5.97
2022-09-24T14:49:17.948Z,6.75
2022-09-24T14:52:32.289Z,6.05
2022-09-24T14:55:43.188Z,6.10
2022-09-24T14:58:46.102Z,6.97
2022-09-24T15:01:49.091Z,5.63
2022-09-24T15:04:53.777Z,6.85
2022-09-24T15:08:21.546Z,17.83
2022-09-24T15:11:27.834Z,9.67
2022-09-24T15:14:34.551Z,7.93
2022-09-24T15:17:37.576Z,6.10
2022-09-24T15:20:40.522Z,6.05
2022-09-24T15:23:43.559Z,9.95
2022-09-24T15:27:00.149Z,5.80
2022-09-24T15:30:04.812Z,6.10
2022-09-24T15:33:14.038Z,6.43
2022-09-24T15:36:21.006Z,6.95
2022-09-24T15:39:24.975Z,8.40
2022-09-24T15:42:28.070Z,6.57
2022-09-24T15:45:31.002Z,9.35
2022-09-24T15:48:33.883Z,7.38
2022-09-24T15:51:36.814Z,8.32
2022-09-24T15:54:39.733Z,8.00
2022-09-24T15:57:42.931Z,6.20
2022-09-24T16:00:46.403Z,7.95
2022-09-24T16:03:49.361Z,7.15
2022-09-24T16:06:52.299Z,8.63
2022-09-24T16:09:55.276Z,9.50
2022-09-24T16:12:58.238Z,9.13
2022-09-24T16:16:05.339Z,9.35
2022-09-24T16:19:09.210Z,10.02
2022-09-24T16:22:14.819Z,8.40
2022-09-24T16:25:21.411Z,6.70
2022-09-24T16:28:24.770Z,8.43
2022-09-24T16:31:27.708Z,10.25
2022-09-24T16:34:30.889Z,8.73
2022-09-24T16:37:33.818Z,12.43
2022-09-24T16:40:36.734Z,9.48
2022-09-24T16:43:39.707Z,8.40
2022-09-24T16:46:43.230Z,9.25
2022-09-24T16:49:46.470Z,17.75
2022-09-24T16:52:50.074Z,30.40
2022-09-24T16:55:53.008Z,27.48
2022-09-24T16:58:56.343Z,16.13
2022-09-24T17:01:59.906Z,15.68
2022-09-24T17:05:03.622Z,17.63
2022-09-24T17:08:06.528Z,21.95
2022-09-24T17:11:09.453Z,19.33
2022-09-24T17:14:12.535Z,15.07
2022-09-24T17:17:15.482Z,13.50
2022-09-24T17:20:19.001Z,17.15
2022-09-24T17:23:21.886Z,12.45
2022-09-24T17:26:25.232Z,14.13
2022-09-24T17:29:31.771Z,13.67
2022-09-24T17:32:34.837Z,16.17
2022-09-24T17:35:37.717Z,11.82
2022-09-24T17:38:40.723Z,12.00
2022-09-24T17:41:43.692Z,11.23
2022-09-24T17:44:46.570Z,11.53
2022-09-24T17:47:58.780Z,13.40
2022-09-24T17:51:05.517Z,14.10
2022-09-24T17:54:11.070Z,12.55
2022-09-24T17:57:13.973Z,14.35
2022-09-24T18:00:16.968Z,11.17
2022-09-24T18:03:20.025Z,12.32
2022-09-24T18:06:27.093Z,11.63
2022-09-24T18:09:32.322Z,13.07
2022-09-24T18:12:35.214Z,12.07
2022-09-24T18:15:38.150Z,14.53
2022-09-24T18:18:41.509Z,15.40
2022-09-24T18:21:45.080Z,14.48
2022-09-24T18:24:48.277Z,15.00
2022-09-24T18:27:51.188Z,17.55
2022-09-24T18:31:05.837Z,18.27
2022-09-24T18:34:09.436Z,19.38
2022-09-24T18:37:12.319Z,15.30
2022-09-24T18:40:15.372Z,16.25
2022-09-24T18:43:18.409Z,18.00
2022-09-24T18:46:22.414Z,15.87
2022-09-24T18:49:25.450Z,14.98
2022-09-24T18:52:28.869Z,14.43
2022-09-24T18:55:31.751Z,15.05
2022-09-24T18:58:34.855Z,12.00
2022-09-24T19:01:38.895Z,13.87
2022-09-24T19:04:42.162Z,18.00
2022-09-24T19:07:45.055Z,17.90
2022-09-24T19:10:48.615Z,13.18
2022-09-24T19:13:52.897Z,12.40
2022-09-24T19:16:57.105Z,12.07
2022-09-24T19:19:59.995Z,16.83
2022-09-24T19:23:02.992Z,14.02
2022-09-24T19:26:06.548Z,12.18
2022-09-24T19:29:09.492Z,13.43
2022-09-24T19:32:12.551Z,10.70
2022-09-24T19:35:15.763Z,15.35
2022-09-24T19:38:18.674Z,22.50
2022-09-24T19:41:26.255Z,15.00
2022-09-24T19:44:30.612Z,15.02
2022-09-24T19:47:33.694Z,25.80
2022-09-24T19:50:38.217Z,35.63
2022-09-24T19:53:41.415Z,30.77
2022-09-24T19:56:44.321Z,26.40
2022-09-24T19:59:47.713Z,25.13
2022-09-24T20:02:51.867Z,23.90
2022-09-24T20:05:54.902Z,24.67
2022-09-24T20:08:57.814Z,31.15
2022-09-24T20:12:01.958Z,28.08
2022-09-24T20:15:05.443Z,27.30
2022-09-24T20:18:11.755Z,23.47
2022-09-24T20:21:17.200Z,27.17
2022-09-24T20:24:20.130Z,25.52
2022-09-24T20:27:41.747Z,21.45
2022-09-24T20:30:44.742Z,18.55
2022-09-24T20:33:48.319Z,17.30
2022-09-24T20:36:51.478Z,19.80
2022-09-24T20:39:54.593Z,21.38
2022-09-24T20:42:57.488Z,19.60
2022-09-24T20:46:01.219Z,19.80
2022-09-24T20:49:04.214Z,19.27
2022-09-24T20:52:07.785Z,22.45
2022-09-24T20:55:11.590Z,20.83
2022-09-24T20:58:15.839Z,15.82
2022-09-24T21:01:19.050Z,22.23
2022-09-24T21:04:22.456Z,25.53
2022-09-24T21:07:25.373Z,24.00
2022-09-24T21:10:28.276Z,22.40
2022-09-24T21:13:33.775Z,20.90
2022-09-24T21:16:36.868Z,14.23
2022-09-24T21:19:39.813Z,18.27
2022-09-24T21:22:42.698Z,16.85
2022-09-24T21:25:54.763Z,14.52
2022-09-24T21:29:09.101Z,20.98
2022-09-24T21:32:12.011Z,12.55
2022-09-24T21:35:15.057Z,11.63
2022-09-24T21:38:19.824Z,12.40
2022-09-24T21:41:24.168Z,13.00
2022-09-24T21:44:30.378Z,22.08
2022-09-24T21:47:33.253Z,17.23
2022-09-24T21:50:40.222Z,17.97
2022-09-24T21:53:43.334Z,22.33
2022-09-24T21:56:46.407Z,17.80
2022-09-24T22:00:03.559Z,15.63
2022-09-24T22:03:09.699Z,16.17
2022-09-24T22:06:13.190Z,14.27
2022-09-24T22:09:16.588Z,15.15
2022-09-24T22:12:19.614Z,15.10
2022-09-24T22:15:22.841Z,16.13
2022-09-24T22:18:28.575Z,14.77
2022-09-24T22:21:31.652Z,16.37
2022-09-24T22:24:34.640Z,15.60
2022-09-24T22:27:37.527Z,16.42
2022-09-24T22:30:44.642Z,16.00
2022-09-24T22:34:06.171Z,16.83
2022-09-24T22:37:09.114Z,15.33
2022-09-24T22:40:12.093Z,15.10
2022-09-24T22:43:15.217Z,15.38
2022-09-24T22:46:18.371Z,15.93
2022-09-24T22:49:23.281Z,20.42
2022-09-24T22:52:26.359Z,24.63
2022-09-24T22:55:29.794Z,20.63
2022-09-24T22:58:33.660Z,21.05
2022-09-24T23:01:41.018Z,13.80
2022-09-24T23:04:46.178Z,15.88
2022-09-24T23:07:49.120Z,12.83
2022-09-24T23:10:52.017Z,13.73
2022-09-24T23:13:57.166Z,12.40
2022-09-24T23:17:00.090Z,11.65
2022-09-24T23:20:03.856Z,10.38
2022-09-24T23:23:06.758Z,11.03
2022-09-24T23:26:16.504Z,11.20
2022-09-24T23:29:20.946Z,13.27
2022-09-24T23:32:23.838Z,16.52
2022-09-24T23:35:26.728Z,13.32
2022-09-24T23:38:29.681Z,18.07
2022-09-24T23:41:32.580Z,11.75
2022-09-24T23:44:35.458Z,11.05
2022-09-24T23:47:38.338Z,12.50
2022-09-24T23:50:42.036Z,15.20
2022-09-24T23:53:44.983Z,14.10
2022-09-24T23:56:47.869Z,14.10
2022-09-24T23:59:50.867Z,14.20
